createdAt,value
2022-12-15T00:00:34.928Z,83.14
2022-12-15T00:03:06.025Z,82.23
2022-12-15T00:05:32.839Z,81.34
2022-12-15T00:08:09.609Z,80.51
2022-12-15T00:10:36.276Z,78.99
2022-12-15T00:13:03.078Z,79.42
2022-12-15T00:15:29.548Z,79.64
2022-12-15T00:17:56.041Z,79.80
2022-12-15T00:20:22.749Z,78.73
2022-12-15T00:22:49.422Z,79.42
2022-12-15T00:25:16.046Z,80.26
2022-12-15T00:27:42.567Z,80.97
2022-12-15T00:30:10.795Z,82.70
2022-12-15T00:32:42.650Z,82.00
2022-12-15T00:35:11.290Z,80.93
2022-12-15T00:37:47.757Z,80.67
2022-12-15T00:40:14.330Z,81.12
2022-12-15T00:42:40.847Z,81.06
2022-12-15T00:45:07.947Z,80.92
2022-12-15T00:47:34.451Z,81.51
2022-12-15T00:50:01.072Z,82.32
2022-12-15T00:52:27.693Z,82.93
2022-12-15T00:54:54.194Z,83.46
2022-12-15T00:57:20.828Z,84.71
2022-12-15T00:59:47.437Z,86.06
2022-12-15T01:02:14.037Z,86.96
2022-12-15T01:04:40.677Z,85.76
2022-12-15T01:07:07.219Z,84.90
2022-12-15T01:09:33.999Z,85.58
2022-12-15T01:12:00.561Z,84.85
2022-12-15T01:14:27.658Z,84.53
2022-12-15T01:16:54.198Z,84.31
2022-12-15T01:19:20.725Z,84.07
2022-12-15T01:21:47.258Z,84.62
2022-12-15T01:24:13.771Z,84.44
2022-12-15T01:26:40.313Z,85.47
2022-12-15T01:29:06.798Z,86.47
2022-12-15T01:31:33.410Z,85.04
2022-12-15T01:34:00.015Z,85.53
2022-12-15T01:36:26.531Z,84.41
2022-12-15T01:38:54.589Z,83.05
2022-12-15T01:41:21.466Z,83.56
2022-12-15T01:43:49.939Z,83.20
2022-12-15T01:46:19.577Z,82.02
2022-12-15T01:48:57.976Z,83.09
2022-12-15T01:51:32.476Z,81.92
2022-12-15T01:54:07.423Z,80.45
2022-12-15T01:56:38.170Z,79.74
2022-12-15T01:59:07.961Z,79.60
2022-12-15T02:01:35.008Z,79.97
2022-12-15T02:04:02.423Z,80.26
2022-12-15T02:06:29.740Z,79.94
2022-12-15T02:08:57.335Z,79.67
2022-12-15T02:11:57.958Z,79.72
2022-12-15T02:14:36.529Z,80.22
2022-12-15T02:17:22.678Z,79.20
2022-12-15T02:20:24.435Z,79.63
2022-12-15T02:23:29.744Z,79.51
2022-12-15T02:26:05.506Z,78.70
2022-12-15T02:28:43.675Z,80.16
2022-12-15T02:31:16.008Z,80.08
2022-12-15T02:33:51.958Z,81.17
2022-12-15T02:36:27.589Z,79.59
2022-12-15T02:38:54.077Z,80.75
2022-12-15T02:41:36.877Z,84.21
2022-12-15T02:44:13.118Z,86.65
2022-12-15T02:46:54.351Z,86.17
2022-12-15T02:49:46.302Z,86.29
2022-12-15T02:52:22.344Z,84.12
2022-12-15T02:55:19.893Z,85.47
2022-12-15T02:57:59.172Z,87.86
2022-12-15T03:00:26.402Z,87.83
2022-12-15T03:02:54.665Z,87.02
2022-12-15T03:05:22.393Z,86.02
2022-12-15T03:07:50.876Z,85.66
2022-12-15T03:10:18.007Z,85.49
2022-12-15T03:12:44.557Z,85.84
2022-12-15T03:15:11.269Z,84.44
2022-12-15T03:17:38.121Z,85.79
2022-12-15T03:20:05.465Z,85.00
2022-12-15T03:22:32.020Z,85.17
2022-12-15T03:24:58.542Z,85.92
2022-12-15T03:27:25.135Z,86.11
2022-12-15T03:29:51.669Z,86.31
2022-12-15T03:32:18.276Z,86.46
2022-12-15T03:34:44.839Z,85.52
2022-12-15T03:37:11.418Z,86.15
2022-12-15T03:39:39.058Z,86.08
2022-12-15T03:42:05.628Z,86.09
2022-12-15T03:44:32.103Z,87.66
2022-12-15T03:47:02.981Z,86.54
2022-12-15T03:49:30.400Z,85.60
2022-12-15T03:51:56.946Z,84.47
2022-12-15T03:54:23.588Z,84.21
2022-12-15T03:56:50.116Z,84.76
2022-12-15T03:59:16.706Z,83.34
2022-12-15T04:01:47.015Z,84.01
2022-12-15T04:04:13.541Z,83.03
2022-12-15T04:06:40.043Z,83.88
2022-12-15T04:09:06.541Z,85.04
2022-12-15T04:11:33.053Z,83.16
2022-12-15T04:14:19.641Z,84.01
2022-12-15T04:17:06.270Z,84.80
2022-12-15T04:19:48.327Z,85.64
2022-12-15T04:22:17.911Z,85.06
2022-12-15T04:24:44.714Z,83.73
2022-12-15T04:27:11.215Z,83.39
2022-12-15T04:29:37.718Z,82.63
2022-12-15T04:32:04.227Z,82.74
2022-12-15T04:34:30.703Z,83.40
2022-12-15T04:36:57.421Z,84.01
2022-12-15T04:39:24.415Z,84.20
2022-12-15T04:41:51.899Z,83.01
2022-12-15T04:44:18.514Z,82.14
2022-12-15T04:46:45.020Z,81.71
2022-12-15T04:49:11.508Z,80.70
2022-12-15T04:51:38.032Z,80.26
2022-12-15T04:54:04.507Z,80.27
2022-12-15T04:56:31.993Z,80.41
2022-12-15T04:58:58.984Z,80.49
2022-12-15T05:01:25.724Z,81.28
2022-12-15T05:03:52.462Z,83.37
2022-12-15T05:06:19.010Z,83.29
2022-12-15T05:08:45.495Z,83.82
2022-12-15T05:11:16.838Z,83.21
2022-12-15T05:13:43.489Z,82.43
2022-12-15T05:16:10.118Z,81.44
2022-12-15T05:18:36.790Z,81.62
2022-12-15T05:21:03.398Z,81.57
2022-12-15T05:23:30.526Z,81.38
2022-12-15T05:25:59.064Z,80.34
2022-12-15T05:28:25.616Z,79.24
2022-12-15T05:30:52.185Z,80.10
2022-12-15T05:33:18.754Z,79.91
2022-12-15T05:35:46.229Z,81.27
2022-12-15T05:38:12.713Z,80.29
2022-12-15T05:40:39.345Z,79.94
2022-12-15T05:43:05.880Z,80.39
2022-12-15T05:45:33.102Z,80.88
2022-12-15T05:47:59.609Z,81.06
2022-12-15T05:50:26.116Z,81.67
2022-12-15T05:52:52.782Z,82.03
2022-12-15T05:55:19.552Z,81.45
2022-12-15T05:57:55.461Z,82.13
2022-12-15T06:00:22.651Z,81.25
2022-12-15T06:02:49.872Z,81.32
2022-12-15T06:05:17.208Z,81.06
2022-12-15T06:07:43.779Z,80.78
2022-12-15T06:10:10.327Z,79.89
2022-12-15T06:12:36.837Z,80.36
2022-12-15T06:15:03.532Z,79.94
2022-12-15T06:17:30.096Z,79.32
2022-12-15T06:19:56.644Z,79.38
2022-12-15T06:22:23.351Z,80.16
2022-12-15T06:24:49.917Z,80.83
2022-12-15T06:27:16.479Z,80.25
2022-12-15T06:29:42.971Z,80.96
2022-12-15T06:32:09.523Z,80.78
2022-12-15T06:34:35.998Z,80.86
2022-12-15T06:37:02.725Z,81.74
2022-12-15T06:39:29.330Z,81.21
2022-12-15T06:41:55.847Z,80.38
2022-12-15T06:44:22.403Z,80.92
2022-12-15T06:46:49.054Z,81.13
2022-12-15T06:49:15.593Z,81.17
2022-12-15T06:51:42.343Z,81.07
2022-12-15T06:54:09.649Z,83.17
2022-12-15T06:56:36.247Z,82.27
2022-12-15T06:59:04.686Z,81.99
2022-12-15T07:01:31.980Z,82.22
2022-12-15T07:03:59.470Z,81.47
2022-12-15T07:06:26.169Z,81.01
2022-12-15T07:08:53.946Z,80.21
2022-12-15T07:11:24.292Z,79.77
2022-12-15T07:13:54.825Z,79.63
2022-12-15T07:16:22.800Z,79.79
2022-12-15T07:18:49.635Z,79.01
2022-12-15T07:21:16.422Z,79.98
2022-12-15T07:23:58.956Z,79.19
2022-12-15T07:26:26.372Z,78.83
2022-12-15T07:28:54.095Z,80.23
2022-12-15T07:31:21.706Z,81.14
2022-12-15T07:33:48.608Z,82.97
2022-12-15T07:36:16.812Z,82.14
2022-12-15T07:38:43.389Z,82.05
2022-12-15T07:41:10.047Z,82.10
2022-12-15T07:43:37.472Z,82.37
2022-12-15T07:46:05.327Z,81.33
2022-12-15T07:48:32.198Z,81.19
2022-12-15T07:51:07.380Z,80.57
2022-12-15T07:53:36.170Z,80.03
2022-12-15T07:56:09.263Z,79.86
2022-12-15T07:58:36.623Z,79.17
2022-12-15T08:01:05.337Z,80.06
2022-12-15T08:03:35.743Z,78.95
2022-12-15T08:06:07.108Z,79.66
2022-12-15T08:08:34.766Z,79.34
2022-12-15T08:11:06.200Z,78.95
2022-12-15T08:16:20.846Z,77.60
2022-12-15T08:18:47.433Z,79.39
2022-12-15T08:21:14.006Z,79.15
2022-12-15T08:23:40.471Z,77.84
2022-12-15T08:26:12.171Z,78.68
2022-12-15T08:28:40.610Z,77.92
2022-12-15T08:31:12.189Z,78.72
2022-12-15T08:33:39.335Z,78.90
2022-12-15T08:36:08.238Z,78.50
2022-12-15T08:38:35.560Z,79.05
2022-12-15T08:41:15.660Z,79.00
2022-12-15T08:43:48.044Z,79.88
2022-12-15T08:46:16.164Z,79.57
2022-12-15T08:48:43.169Z,79.86
2022-12-15T08:51:09.700Z,79.98
2022-12-15T08:53:36.518Z,80.11
2022-12-15T08:56:11.872Z,80.46
2022-12-15T08:58:38.671Z,79.56
2022-12-15T09:01:07.267Z,78.67
2022-12-15T09:03:35.481Z,77.98
2022-12-15T09:06:06.204Z,78.36
2022-12-15T09:08:33.710Z,77.68
2022-12-15T09:11:00.871Z,77.44
2022-12-15T09:13:28.503Z,76.91
2022-12-15T09:16:11.191Z,75.86
2022-12-15T09:18:38.144Z,75.30
2022-12-15T09:21:06.442Z,74.70
2022-12-15T09:23:33.866Z,74.23
2022-12-15T09:26:05.961Z,72.92
2022-12-15T09:28:32.486Z,72.07
2022-12-15T09:31:06.547Z,71.86
2022-12-15T09:33:34.180Z,71.76
2022-12-15T09:36:01.023Z,71.51
2022-12-15T09:38:27.596Z,71.25
2022-12-15T09:40:54.295Z,69.91
2022-12-15T09:43:46.712Z,71.31
2022-12-15T09:46:23.617Z,70.00
2022-12-15T09:48:51.369Z,72.78
2022-12-15T09:51:18.826Z,72.66
2022-12-15T09:53:54.796Z,72.04
2022-12-15T09:56:27.483Z,71.18
2022-12-15T09:58:57.194Z,71.62
2022-12-15T10:01:35.691Z,72.04
2022-12-15T10:04:18.104Z,71.52
2022-12-15T10:07:13.880Z,70.74
2022-12-15T10:09:40.430Z,70.24
2022-12-15T10:12:19.840Z,71.15
2022-12-15T10:14:51.400Z,70.06
2022-12-15T10:17:36.087Z,71.95
2022-12-15T10:20:22.678Z,72.44
2022-12-15T10:22:50.200Z,72.54
2022-12-15T10:25:30.702Z,72.14
2022-12-15T10:28:07.747Z,71.81
2022-12-15T10:30:34.626Z,70.98
2022-12-15T10:33:21.305Z,71.31
2022-12-15T10:35:48.642Z,71.27
2022-12-15T10:38:25.199Z,70.77
2022-12-15T10:41:04.856Z,69.75
2022-12-15T10:43:36.168Z,70.47
2022-12-15T10:46:08.967Z,68.97
2022-12-15T10:48:36.674Z,70.50
2022-12-15T10:51:37.328Z,69.91
2022-12-15T10:54:08.811Z,70.12
2022-12-15T10:56:50.090Z,69.70
2022-12-15T10:59:30.616Z,70.20
2022-12-15T11:02:23.057Z,69.40
2022-12-15T11:05:01.764Z,71.10
2022-12-15T11:07:35.348Z,71.13
2022-12-15T11:10:08.757Z,73.17
2022-12-15T11:12:35.288Z,73.34
2022-12-15T11:15:01.782Z,73.57
2022-12-15T11:17:38.847Z,74.61
2022-12-15T11:20:07.674Z,74.60
2022-12-15T11:22:53.457Z,73.04
2022-12-15T11:25:32.259Z,74.12
2022-12-15T11:28:00.443Z,74.74
2022-12-15T11:30:33.284Z,73.73
2022-12-15T11:33:00.930Z,73.68
2022-12-15T11:35:44.364Z,71.21
2022-12-15T11:38:32.522Z,70.58
2022-12-15T11:41:21.299Z,70.93
2022-12-15T11:44:06.294Z,71.74
2022-12-15T11:46:56.815Z,69.79
2022-12-15T11:49:26.312Z,70.23
2022-12-15T11:52:00.408Z,69.82
2022-12-15T11:54:30.303Z,71.27
2022-12-15T11:57:03.208Z,70.05
2022-12-15T11:59:32.939Z,70.20
2022-12-15T12:02:29.957Z,69.42
2022-12-15T12:05:40.772Z,68.93
2022-12-15T12:08:14.361Z,68.26
2022-12-15T12:11:08.733Z,68.58
2022-12-15T12:13:38.314Z,67.04
2022-12-15T12:16:35.153Z,68.33
2022-12-15T12:19:06.283Z,68.48
2022-12-15T12:21:39.715Z,71.62
2022-12-15T12:24:21.500Z,72.86
2022-12-15T12:27:24.607Z,72.41
2022-12-15T12:29:53.997Z,72.53
2022-12-15T12:32:59.919Z,73.50
2022-12-15T12:35:45.863Z,72.46
2022-12-15T12:38:13.970Z,72.55
2022-12-15T12:40:40.388Z,72.04
2022-12-15T12:43:13.491Z,71.42
2022-12-15T12:45:50.301Z,71.13
2022-12-15T12:48:37.301Z,71.32
2022-12-15T12:51:24.642Z,70.61
2022-12-15T12:53:51.966Z,70.47
2022-12-15T12:56:36.263Z,69.17
2022-12-15T12:59:04.742Z,69.67
2022-12-15T13:01:33.393Z,70.73
2022-12-15T13:04:15.883Z,69.71
2022-12-15T13:06:42.322Z,69.88
2022-12-15T13:09:17.834Z,70.99
2022-12-15T13:12:03.178Z,70.23
2022-12-15T13:14:42.999Z,70.71
2022-12-15T13:17:35.733Z,70.86
2022-12-15T13:20:16.326Z,71.55
2022-12-15T13:22:43.044Z,71.53
2022-12-15T13:25:42.775Z,70.53
2022-12-15T13:28:37.620Z,70.28
2022-12-15T13:31:16.179Z,70.90
2022-12-15T13:33:51.658Z,71.22
2022-12-15T13:36:36.629Z,70.68
2022-12-15T13:39:05.703Z,71.33
2022-12-15T13:41:32.192Z,72.05
2022-12-15T13:44:00.380Z,75.26
2022-12-15T13:46:28.730Z,76.53
2022-12-15T13:49:14.887Z,75.25
2022-12-15T13:51:44.976Z,74.22
2022-12-15T13:54:30.903Z,74.77
2022-12-15T13:57:04.136Z,72.61
2022-12-15T13:59:36.142Z,72.66
2022-12-15T14:02:02.971Z,72.16
2022-12-15T14:04:29.497Z,71.68
2022-12-15T14:06:58.310Z,71.05
2022-12-15T14:09:28.096Z,70.09
2022-12-15T14:11:55.051Z,70.68
2022-12-15T14:14:27.307Z,69.55
2022-12-15T14:17:01.295Z,69.17
2022-12-15T14:19:38.627Z,69.15
2022-12-15T14:22:23.306Z,69.12
2022-12-15T14:25:00.462Z,69.16
2022-12-15T14:27:32.201Z,68.59
2022-12-15T14:30:24.759Z,67.97
2022-12-15T14:32:58.524Z,67.75
2022-12-15T14:35:49.469Z,69.73
2022-12-15T14:38:38.913Z,69.67
2022-12-15T14:41:05.782Z,70.23
2022-12-15T14:43:35.386Z,70.27
2022-12-15T14:46:16.256Z,70.29
2022-12-15T14:49:22.183Z,70.31
2022-12-15T14:51:52.257Z,70.54
2022-12-15T14:54:31.238Z,70.97
2022-12-15T14:57:22.329Z,72.21
2022-12-15T14:59:49.173Z,72.94
2022-12-15T15:02:38.360Z,73.03
2022-12-15T15:05:06.425Z,73.90
2022-12-15T15:07:34.389Z,74.03
2022-12-15T15:10:02.058Z,73.08
2022-12-15T15:12:44.389Z,72.65
2022-12-15T15:15:18.314Z,71.55
2022-12-15T15:17:59.041Z,71.89
2022-12-15T15:20:31.040Z,72.39
2022-12-15T15:23:07.431Z,71.49
2022-12-15T15:25:49.055Z,73.26
2022-12-15T15:28:33.798Z,73.84
2022-12-15T15:31:25.914Z,73.52
2022-12-15T15:33:53.023Z,73.77
2022-12-15T15:36:20.233Z,73.89
2022-12-15T15:38:46.858Z,74.17
2022-12-15T15:41:28.485Z,75.09
2022-12-15T15:43:55.696Z,75.69
2022-12-15T15:46:23.624Z,77.03
2022-12-15T15:48:58.459Z,77.53
2022-12-15T15:51:26.207Z,79.28
2022-12-15T15:53:53.772Z,79.97
2022-12-15T15:56:20.996Z,80.95
2022-12-15T15:58:50.628Z,80.88
2022-12-15T16:01:17.201Z,80.90
2022-12-15T16:03:43.810Z,81.79
2022-12-15T16:06:17.360Z,81.93
2022-12-15T16:08:45.198Z,84.63
2022-12-15T16:11:12.896Z,87.53
2022-12-15T16:13:39.584Z,88.82
2022-12-15T16:16:06.763Z,89.73
2022-12-15T16:18:33.696Z,91.01
2022-12-15T16:21:00.420Z,92.35
2022-12-15T16:23:28.488Z,93.46
2022-12-15T16:25:59.300Z,94.74
2022-12-15T16:28:31.007Z,94.54
2022-12-15T16:30:58.469Z,94.97
2022-12-15T16:33:25.728Z,94.99
2022-12-15T16:35:52.719Z,94.18
2022-12-15T16:38:28.962Z,93.63
2022-12-15T16:40:56.680Z,92.52
2022-12-15T16:43:25.687Z,92.18
2022-12-15T16:45:56.927Z,90.72
2022-12-15T16:48:25.815Z,90.50
2022-12-15T16:50:57.408Z,88.52
2022-12-15T16:53:29.622Z,88.01
2022-12-15T16:55:59.684Z,86.69
2022-12-15T16:58:27.307Z,87.84
2022-12-15T17:00:53.832Z,87.07
2022-12-15T17:03:21.440Z,84.60
2022-12-15T17:05:50.009Z,84.91
2022-12-15T17:08:24.991Z,83.89
2022-12-15T17:10:51.983Z,84.12
2022-12-15T17:13:39.179Z,84.78
2022-12-15T17:16:11.137Z,84.69
2022-12-15T17:18:38.110Z,85.72
2022-12-15T17:21:07.656Z,86.48
2022-12-15T17:23:35.350Z,88.35
2022-12-15T17:26:22.632Z,88.94
2022-12-15T17:28:49.196Z,86.71
2022-12-15T17:31:20.729Z,89.13
2022-12-15T17:33:47.946Z,90.17
2022-12-15T17:36:17.250Z,91.51
2022-12-15T17:38:43.850Z,91.95
2022-12-15T17:41:29.056Z,95.13
2022-12-15T17:46:47.324Z,96.63
2022-12-15T17:49:13.896Z,97.46
2022-12-15T17:51:42.372Z,97.23
2022-12-15T17:54:12.905Z,97.36
2022-12-15T17:56:39.556Z,96.00
2022-12-15T17:59:12.959Z,94.84
2022-12-15T18:01:39.553Z,95.00
2022-12-15T18:04:06.153Z,92.13
2022-12-15T18:06:32.727Z,90.39
2022-12-15T18:08:59.247Z,91.19
2022-12-15T18:11:25.741Z,89.89
2022-12-15T18:13:52.234Z,89.62
2022-12-15T18:16:18.823Z,89.83
2022-12-15T18:18:45.391Z,89.22
2022-12-15T18:21:13.900Z,88.30
2022-12-15T18:23:40.456Z,88.07
2022-12-15T18:26:08.733Z,89.15
2022-12-15T18:28:35.374Z,88.37
2022-12-15T18:31:19.728Z,87.79
2022-12-15T18:33:46.367Z,86.66
2022-12-15T18:36:13.299Z,84.54
2022-12-15T18:38:40.029Z,85.58
2022-12-15T18:41:09.804Z,87.62
2022-12-15T18:43:36.290Z,90.11
2022-12-15T18:46:03.116Z,92.71
2022-12-15T18:48:32.860Z,94.79
2022-12-15T18:51:00.716Z,94.56
2022-12-15T18:53:36.820Z,95.54
2022-12-15T18:56:06.162Z,96.28
2022-12-15T18:58:34.793Z,95.52
2022-12-15T19:01:02.760Z,95.54
2022-12-15T19:03:30.330Z,96.79
2022-12-15T19:06:02.496Z,96.10
2022-12-15T19:08:30.028Z,96.41
2022-12-15T19:11:01.494Z,95.21
2022-12-15T19:13:31.087Z,95.83
2022-12-15T19:15:59.118Z,94.89
2022-12-15T19:18:25.879Z,94.62
2022-12-15T19:20:52.384Z,94.44
2022-12-15T19:23:18.932Z,93.42
2022-12-15T19:25:46.762Z,93.43
2022-12-15T19:28:21.670Z,93.10
2022-12-15T19:30:48.516Z,91.55
2022-12-15T19:33:16.246Z,90.04
2022-12-15T19:35:45.261Z,90.39
2022-12-15T19:38:20.626Z,88.19
2022-12-15T19:40:47.520Z,86.58
2022-12-15T19:43:16.205Z,86.24
2022-12-15T19:45:43.210Z,86.86
2022-12-15T19:48:10.828Z,86.80
2022-12-15T19:50:38.083Z,87.18
2022-12-15T19:53:25.531Z,87.08
2022-12-15T19:55:54.305Z,85.90
2022-12-15T19:58:28.796Z,85.05
2022-12-15T20:01:01.035Z,85.71
2022-12-15T20:03:29.242Z,83.96
2022-12-15T20:05:56.788Z,84.04
2022-12-15T20:08:28.451Z,83.70
2022-12-15T20:10:55.802Z,83.35
2022-12-15T20:13:22.845Z,83.40
2022-12-15T20:15:49.481Z,83.40
2022-12-15T20:18:16.000Z,83.96
2022-12-15T20:20:43.992Z,83.83
2022-12-15T20:23:23.219Z,83.32
2022-12-15T20:25:49.753Z,84.56
2022-12-15T20:28:21.236Z,84.31
2022-12-15T20:30:48.210Z,83.58
2022-12-15T20:33:15.230Z,83.45
2022-12-15T20:35:42.879Z,83.52
2022-12-15T20:38:27.409Z,83.36
2022-12-15T20:40:54.893Z,83.30
2022-12-15T20:43:22.282Z,83.94
2022-12-15T20:45:58.386Z,83.12
2022-12-15T20:48:25.247Z,84.01
2022-12-15T20:50:51.782Z,84.60
2022-12-15T20:53:24.027Z,83.99
2022-12-15T20:55:52.072Z,84.63
2022-12-15T20:58:19.454Z,85.59
2022-12-15T21:00:47.019Z,85.53
2022-12-15T21:03:26.047Z,84.16
2022-12-15T21:05:55.171Z,83.73
2022-12-15T21:08:28.156Z,83.18
2022-12-15T21:10:56.583Z,83.14
2022-12-15T21:13:25.765Z,83.09
2022-12-15T21:15:52.500Z,82.51
2022-12-15T21:19:03.545Z,82.90
2022-12-15T21:21:06.829Z,82.55
2022-12-15T21:23:36.383Z,81.82
2022-12-15T21:26:05.194Z,82.56
2022-12-15T21:28:31.946Z,82.68
2022-12-15T21:30:58.828Z,82.78
2022-12-15T21:33:25.461Z,83.60
2022-12-15T21:35:52.280Z,81.98
2022-12-15T21:38:45.599Z,82.75
2022-12-15T21:41:15.691Z,83.93
2022-12-15T21:43:42.591Z,82.55
2022-12-15T21:46:26.251Z,82.75
2022-12-15T21:48:55.815Z,82.74
2022-12-15T21:51:22.403Z,82.50
2022-12-15T21:53:48.931Z,82.43
2022-12-15T21:56:17.737Z,82.13
2022-12-15T21:58:45.528Z,80.78
2022-12-15T22:01:13.692Z,82.00
2022-12-15T22:03:41.496Z,82.09
2022-12-15T22:06:17.296Z,81.68
2022-12-15T22:08:43.861Z,81.80
2022-12-15T22:11:18.224Z,81.81
2022-12-15T22:13:44.731Z,82.53
2022-12-15T22:16:14.598Z,82.18
2022-12-15T22:18:41.159Z,81.41
2022-12-15T22:21:07.900Z,81.58
2022-12-15T22:23:34.452Z,82.18
2022-12-15T22:26:01.022Z,81.19
2022-12-15T22:28:28.650Z,80.97
2022-12-15T22:30:56.194Z,81.34
2022-12-15T22:33:25.035Z,80.45
2022-12-15T22:35:53.492Z,81.77
2022-12-15T22:38:23.032Z,80.05
2022-12-15T22:40:51.766Z,80.74
2022-12-15T22:43:49.235Z,81.80
2022-12-15T22:46:16.328Z,82.46
2022-12-15T22:48:44.888Z,83.88
2022-12-15T22:51:13.459Z,81.79
2022-12-15T22:53:40.314Z,82.25
2022-12-15T22:56:24.274Z,82.59
2022-12-15T22:58:54.831Z,83.13
2022-12-15T23:01:21.425Z,82.67
2022-12-15T23:03:51.943Z,82.88
2022-12-15T23:06:18.562Z,84.13
2022-12-15T23:08:45.144Z,84.78
2022-12-15T23:11:12.137Z,84.59
2022-12-15T23:13:38.724Z,84.26
2022-12-15T23:16:06.221Z,84.49
2022-12-15T23:18:32.802Z,87.59
2022-12-15T23:20:59.289Z,89.92
2022-12-15T23:23:25.775Z,91.19
2022-12-15T23:25:52.966Z,92.82
2022-12-15T23:28:20.791Z,93.00
2022-12-15T23:30:54.050Z,93.97
2022-12-15T23:33:21.611Z,93.39
2022-12-15T23:35:48.495Z,93.88
2022-12-15T23:38:15.036Z,91.86
2022-12-15T23:40:52.662Z,91.65
2022-12-15T23:43:20.285Z,93.19
2022-12-15T23:45:54.760Z,91.25
2022-12-15T23:48:21.665Z,89.62
2022-12-15T23:50:48.193Z,88.57
2022-12-15T23:53:14.683Z,87.09
2022-12-15T23:55:41.184Z,86.41
2022-12-15T23:58:07.711Z,84.94
